createdAt,value
2017-09-12T00:00:01.989Z,11.70
2017-09-12T00:02:28.292Z,11.80
2017-09-12T00:04:54.598Z,11.80
2017-09-12T00:07:20.884Z,11.80
2017-09-12T00:09:47.184Z,11.60
2017-09-12T00:12:13.836Z,11.60
2017-09-12T00:14:40.129Z,11.60
2017-09-12T00:17:06.457Z,11.60
2017-09-12T00:19:32.732Z,11.70
2017-09-12T00:21:59.044Z,11.60
2017-09-12T00:24:25.759Z,11.50
2017-09-12T00:26:52.021Z,11.50
2017-09-12T00:29:18.310Z,11.40
2017-09-12T00:31:44.602Z,11.40
2017-09-12T00:34:10.913Z,11.30
2017-09-12T00:36:37.230Z,11.40
2017-09-12T00:39:03.932Z,11.40
2017-09-12T00:41:30.201Z,11.40
2017-09-12T00:43:56.515Z,11.40
2017-09-12T00:46:23.164Z,11.60
2017-09-12T00:48:50.250Z,11.60
2017-09-12T00:51:16.565Z,11.60
2017-09-12T00:53:42.849Z,11.70
2017-09-12T00:56:09.164Z,11.50
2017-09-12T00:58:35.448Z,11.50
2017-09-12T01:01:01.784Z,11.70
2017-09-12T01:03:28.081Z,11.80
2017-09-12T01:05:54.394Z,11.70
2017-09-12T01:08:20.676Z,11.80
2017-09-12T01:10:47.324Z,11.80
2017-09-12T01:13:13.630Z,11.90
2017-09-12T01:15:39.894Z,11.90
2017-09-12T01:18:06.192Z,12.10
2017-09-12T01:20:32.492Z,12.30
2017-09-12T01:22:58.809Z,12.40
2017-09-12T01:25:25.105Z,12.40
2017-09-12T01:27:51.426Z,12.50
2017-09-12T01:30:17.702Z,12.50
2017-09-12T01:32:44.029Z,12.50
2017-09-12T01:35:10.292Z,12.50
2017-09-12T01:37:36.609Z,12.50
2017-09-12T01:40:03.286Z,12.40
2017-09-12T01:42:29.570Z,12.40
2017-09-12T01:44:55.870Z,12.30
2017-09-12T01:47:22.165Z,12.10
2017-09-12T01:49:48.465Z,12.00
2017-09-12T01:52:14.721Z,11.80
2017-09-12T01:54:41.005Z,11.80
2017-09-12T01:57:13.237Z,11.70
2017-09-12T01:59:39.525Z,11.70
2017-09-12T02:02:06.247Z,11.90
2017-09-12T02:04:32.539Z,11.90
2017-09-12T02:06:58.817Z,12.00
2017-09-12T02:09:25.510Z,12.10
2017-09-12T02:11:51.782Z,12.10
2017-09-12T02:14:18.433Z,12.10
2017-09-12T02:16:45.085Z,12.20
2017-09-12T02:19:11.349Z,12.20
2017-09-12T02:21:37.625Z,12.30
2017-09-12T02:24:04.269Z,12.10
2017-09-12T02:26:30.565Z,12.10
2017-09-12T02:28:56.812Z,11.90
2017-09-12T02:31:23.520Z,11.90
2017-09-12T02:33:49.772Z,11.90
2017-09-12T02:36:16.052Z,11.80
2017-09-12T02:38:42.345Z,11.90
2017-09-12T02:41:08.968Z,12.10
2017-09-12T02:43:35.293Z,12.10
2017-09-12T02:46:01.608Z,12.10
2017-09-12T02:48:27.916Z,12.10
2017-09-12T02:50:54.185Z,12.10
2017-09-12T02:53:20.735Z,12.10
2017-09-12T02:55:47.385Z,12.10
2017-09-12T02:58:14.067Z,12.10
2017-09-12T03:00:40.389Z,12.20
2017-09-12T03:03:06.662Z,12.10
2017-09-12T03:05:32.957Z,12.20
2017-09-12T03:07:59.211Z,12.10
2017-09-12T03:10:25.489Z,12.20
2017-09-12T03:12:51.748Z,12.10
2017-09-12T03:15:18.051Z,12.00
2017-09-12T03:17:44.304Z,11.80
2017-09-12T03:20:10.593Z,11.80
2017-09-12T03:22:36.872Z,11.80
2017-09-12T03:25:03.137Z,11.90
2017-09-12T03:27:29.452Z,11.90
2017-09-12T03:29:55.717Z,11.90
2017-09-12T03:32:21.975Z,11.90
2017-09-12T03:34:48.291Z,11.70
2017-09-12T03:37:14.593Z,11.70
2017-09-12T03:39:40.866Z,11.80
2017-09-12T03:42:07.146Z,11.80
2017-09-12T03:44:33.784Z,12.00
2017-09-12T03:47:00.412Z,12.00
2017-09-12T03:49:27.078Z,12.00
2017-09-12T03:51:53.337Z,12.00
2017-09-12T03:54:19.651Z,12.10
2017-09-12T03:56:45.952Z,11.90
2017-09-12T03:59:12.272Z,11.80
2017-09-12T04:01:38.545Z,11.70
2017-09-12T04:04:04.864Z,11.60
2017-09-12T04:06:31.165Z,11.50
2017-09-12T04:08:57.478Z,11.50
2017-09-12T04:11:23.793Z,11.70
2017-09-12T04:13:50.118Z,11.80
2017-09-12T04:16:16.498Z,12.00
2017-09-12T04:18:42.821Z,12.00
2017-09-12T04:21:09.509Z,11.90
2017-09-12T04:23:35.801Z,11.90
2017-09-12T04:26:02.158Z,12.00
2017-09-12T04:28:28.522Z,11.90
2017-09-12T04:30:54.805Z,11.90
2017-09-12T04:33:22.116Z,12.10
2017-09-12T04:35:48.397Z,12.10
2017-09-12T04:38:14.716Z,12.10
2017-09-12T04:40:41.017Z,12.00
2017-09-12T04:43:07.583Z,11.90
2017-09-12T04:45:33.873Z,12.00
2017-09-12T04:48:00.556Z,12.00
2017-09-12T04:50:26.847Z,12.00
2017-09-12T04:52:53.137Z,12.00
2017-09-12T04:55:19.452Z,12.00
2017-09-12T04:57:45.724Z,12.10
2017-09-12T05:00:12.455Z,12.20
2017-09-12T05:02:38.728Z,12.20
2017-09-12T05:05:05.464Z,12.20
2017-09-12T05:07:31.745Z,12.30
2017-09-12T05:09:58.631Z,12.40
2017-09-12T05:12:24.944Z,12.40
2017-09-12T05:14:51.588Z,12.40
2017-09-12T05:17:18.260Z,12.50
2017-09-12T05:19:45.531Z,12.50
2017-09-12T05:22:11.821Z,12.40
2017-09-12T05:24:38.118Z,12.40
2017-09-12T05:27:04.400Z,12.30
2017-09-12T05:29:30.711Z,12.30
2017-09-12T05:31:57.013Z,12.10
2017-09-12T05:34:23.669Z,12.30
2017-09-12T05:36:50.308Z,12.50
2017-09-12T05:39:16.970Z,12.60
2017-09-12T05:41:43.255Z,12.60
2017-09-12T05:44:09.526Z,12.70
2017-09-12T05:46:35.784Z,12.70
2017-09-12T05:49:02.076Z,12.80
2017-09-12T05:51:28.388Z,12.80
2017-09-12T05:53:54.654Z,12.80
2017-09-12T05:56:20.916Z,12.90
2017-09-12T05:58:47.168Z,12.80
2017-09-12T06:01:13.841Z,13.00
2017-09-12T06:03:40.112Z,13.00
2017-09-12T06:06:06.420Z,13.20
2017-09-12T06:08:32.713Z,13.30
2017-09-12T06:10:59.653Z,13.20
2017-09-12T06:13:26.318Z,13.30
2017-09-12T06:15:52.608Z,13.30
2017-09-12T06:18:19.285Z,13.50
2017-09-12T06:20:45.569Z,13.50
2017-09-12T06:23:11.814Z,13.50
2017-09-12T06:25:38.438Z,12.90
2017-09-12T06:28:04.701Z,12.90
2017-09-12T06:30:30.925Z,12.90
2017-09-12T06:32:57.611Z,13.00
2017-09-12T06:35:23.884Z,13.00
2017-09-12T06:37:50.544Z,13.00
2017-09-12T06:40:16.845Z,13.00
2017-09-12T06:42:43.114Z,13.10
2017-09-12T06:45:09.405Z,12.90
2017-09-12T06:47:36.053Z,12.90
2017-09-12T06:50:02.350Z,12.90
2017-09-12T06:52:28.636Z,12.70
2017-09-12T06:54:54.913Z,12.60
2017-09-12T06:57:21.194Z,12.70
2017-09-12T06:59:47.550Z,12.80
2017-09-12T07:02:13.891Z,12.90
2017-09-12T07:04:40.164Z,12.70
2017-09-12T07:07:06.462Z,12.90
2017-09-12T07:09:32.720Z,13.00
2017-09-12T07:11:59.418Z,13.30
2017-09-12T07:14:25.690Z,13.30
2017-09-12T07:16:51.999Z,13.60
2017-09-12T07:19:18.669Z,13.70
2017-09-12T07:21:45.204Z,13.80
2017-09-12T07:24:11.484Z,13.90
2017-09-12T07:26:37.744Z,13.90
2017-09-12T07:29:04.410Z,14.00
2017-09-12T07:31:30.697Z,14.00
2017-09-12T07:33:56.980Z,14.00
2017-09-12T07:36:23.256Z,14.10
2017-09-12T07:38:49.916Z,13.90
2017-09-12T07:41:16.772Z,13.90
2017-09-12T07:43:43.097Z,14.20
2017-09-12T07:46:09.401Z,14.30
2017-09-12T07:48:36.168Z,13.90
2017-09-12T07:51:02.494Z,13.90
2017-09-12T07:53:28.780Z,14.00
2017-09-12T07:55:55.073Z,14.40
2017-09-12T07:58:21.415Z,14.30
2017-09-12T08:00:47.704Z,14.30
2017-09-12T08:03:13.963Z,14.60
2017-09-12T08:05:40.537Z,14.70
2017-09-12T08:08:06.799Z,14.40
2017-09-12T08:10:33.061Z,14.30
2017-09-12T08:12:59.365Z,14.30
2017-09-12T08:15:25.632Z,14.30
2017-09-12T08:17:52.010Z,14.40
2017-09-12T08:20:18.298Z,14.50
2017-09-12T08:22:44.633Z,14.70
2017-09-12T08:25:11.633Z,14.80
2017-09-12T08:27:37.919Z,15.00
2017-09-12T08:30:04.197Z,15.10
2017-09-12T08:32:30.479Z,15.20
2017-09-12T08:34:56.751Z,15.30
2017-09-12T08:37:23.043Z,15.40
2017-09-12T08:39:49.356Z,15.50
2017-09-12T08:42:15.672Z,15.60
2017-09-12T08:44:41.992Z,15.50
2017-09-12T08:47:08.288Z,15.30
2017-09-12T08:49:34.613Z,15.40
2017-09-12T08:52:00.892Z,15.80
2017-09-12T08:54:27.167Z,16.50
2017-09-12T08:56:53.824Z,16.80
2017-09-12T08:59:20.107Z,16.70
2017-09-12T09:01:46.369Z,16.60
2017-09-12T09:04:12.648Z,16.70
2017-09-12T09:06:38.972Z,16.90
2017-09-12T09:09:05.254Z,16.90
2017-09-12T09:11:31.560Z,17.20
2017-09-12T09:13:57.815Z,17.20
2017-09-12T09:16:24.480Z,17.40
2017-09-12T09:18:50.774Z,17.40
2017-09-12T09:21:17.765Z,16.90
2017-09-12T09:23:44.035Z,16.90
2017-09-12T09:26:10.351Z,16.90
2017-09-12T09:28:36.652Z,16.80
2017-09-12T09:31:02.947Z,16.50
2017-09-12T09:33:29.608Z,15.90
2017-09-12T09:35:55.867Z,15.90
2017-09-12T09:38:22.147Z,16.10
2017-09-12T09:40:48.428Z,16.00
2017-09-12T09:43:15.023Z,16.00
2017-09-12T09:45:41.272Z,16.40
2017-09-12T09:48:07.572Z,16.50
2017-09-12T09:50:33.863Z,16.40
2017-09-12T09:53:00.137Z,16.50
2017-09-12T09:55:26.432Z,16.80
2017-09-12T09:57:52.710Z,16.80
2017-09-12T10:00:19.008Z,16.50
2017-09-12T10:02:46.325Z,15.10
2017-09-12T10:05:12.619Z,15.10
2017-09-12T10:07:38.923Z,14.90
2017-09-12T10:10:05.597Z,14.70
2017-09-12T10:12:31.889Z,14.70
2017-09-12T10:14:58.452Z,14.70
2017-09-12T10:17:24.772Z,15.00
2017-09-12T10:19:51.052Z,15.30
2017-09-12T10:22:17.400Z,15.60
2017-09-12T10:24:43.783Z,16.80
2017-09-12T10:27:10.347Z,18.10
2017-09-12T10:29:36.692Z,19.60
2017-09-12T10:32:03.005Z,21.90
2017-09-12T10:34:29.305Z,24.00
2017-09-12T10:36:55.599Z,24.30
2017-09-12T10:39:21.928Z,24.70
2017-09-12T10:41:48.676Z,22.90
2017-09-12T10:44:15.324Z,21.10
2017-09-12T10:46:41.590Z,21.10
2017-09-12T10:49:07.863Z,20.00
2017-09-12T10:51:34.514Z,20.70
2017-09-12T10:54:00.800Z,20.70
2017-09-12T10:56:27.079Z,20.90
2017-09-12T10:58:53.393Z,21.70
2017-09-12T11:01:19.680Z,23.10
2017-09-12T11:03:45.969Z,24.70
2017-09-12T11:06:12.261Z,24.90
2017-09-12T11:08:38.569Z,24.40
2017-09-12T11:11:04.876Z,24.80
2017-09-12T11:13:31.176Z,26.90
2017-09-12T11:15:57.868Z,29.70
2017-09-12T11:18:24.142Z,29.70
2017-09-12T11:20:50.480Z,28.00
2017-09-12T11:23:16.765Z,25.80
2017-09-12T11:25:43.083Z,23.60
2017-09-12T11:28:09.359Z,22.00
2017-09-12T11:30:35.911Z,19.50
2017-09-12T11:33:02.211Z,17.90
2017-09-12T11:35:28.471Z,17.10
2017-09-12T11:37:54.774Z,18.40
2017-09-12T11:40:21.055Z,22.20
2017-09-12T11:42:47.349Z,26.10
2017-09-12T11:45:14.009Z,32.60
2017-09-12T11:47:40.300Z,32.60
2017-09-12T11:50:06.602Z,33.80
2017-09-12T11:52:32.964Z,32.80
2017-09-12T11:54:59.639Z,26.80
2017-09-12T11:57:26.176Z,26.80
2017-09-12T11:59:52.446Z,23.70
2017-09-12T12:02:18.721Z,22.20
2017-09-12T12:04:45.011Z,22.30
2017-09-12T12:07:11.283Z,25.40
2017-09-12T12:09:37.577Z,28.40
2017-09-12T12:12:03.856Z,30.90
2017-09-12T12:14:30.295Z,31.90
2017-09-12T12:16:56.657Z,31.90
2017-09-12T12:19:22.952Z,30.60
2017-09-12T12:21:49.238Z,29.80
2017-09-12T12:24:15.883Z,33.10
2017-09-12T12:26:42.512Z,33.40
2017-09-12T12:29:09.188Z,34.80
2017-09-12T12:31:35.446Z,34.80
2017-09-12T12:34:01.721Z,36.10
2017-09-12T12:36:28.070Z,37.70
2017-09-12T12:38:54.323Z,39.50
2017-09-12T12:41:20.872Z,41.80
2017-09-12T12:43:47.146Z,45.10
2017-09-12T12:46:13.860Z,42.90
2017-09-12T12:48:40.152Z,42.90
2017-09-12T12:51:06.729Z,37.50
2017-09-12T12:53:33.036Z,34.90
2017-09-12T12:55:59.316Z,35.60
2017-09-12T12:58:25.640Z,35.40
2017-09-12T13:00:51.921Z,37.40
2017-09-12T13:03:18.269Z,37.70
2017-09-12T13:05:44.569Z,37.40
2017-09-12T13:08:10.883Z,35.90
2017-09-12T13:10:37.179Z,36.10
2017-09-12T13:13:03.494Z,35.40
2017-09-12T13:15:29.775Z,32.40
2017-09-12T13:17:56.087Z,30.00
2017-09-12T13:20:23.195Z,30.60
2017-09-12T13:22:49.800Z,33.20
2017-09-12T13:25:16.517Z,35.70
2017-09-12T13:27:42.791Z,38.10
2017-09-12T13:30:09.063Z,37.40
2017-09-12T13:32:35.359Z,35.80
2017-09-12T13:35:01.623Z,31.90
2017-09-12T13:37:27.960Z,29.10
2017-09-12T13:39:54.236Z,26.00
2017-09-12T13:42:20.546Z,23.40
2017-09-12T13:44:46.810Z,21.00
2017-09-12T13:47:13.101Z,19.50
2017-09-12T13:49:39.385Z,18.30
2017-09-12T13:52:05.665Z,17.40
2017-09-12T13:54:31.961Z,17.10
2017-09-12T13:56:58.229Z,17.30
2017-09-12T13:59:24.516Z,18.20
2017-09-12T14:01:50.799Z,22.80
2017-09-12T14:04:17.080Z,28.40
2017-09-12T14:06:43.718Z,35.20
2017-09-12T14:09:10.373Z,37.70
2017-09-12T14:11:36.651Z,37.70
2017-09-12T14:14:03.256Z,39.60
2017-09-12T14:16:29.537Z,41.40
2017-09-12T14:18:55.828Z,42.60
2017-09-12T14:21:22.164Z,43.30
2017-09-12T14:23:48.461Z,44.20
2017-09-12T14:26:14.762Z,44.30
2017-09-12T14:28:41.072Z,44.50
2017-09-12T14:31:07.456Z,44.30
2017-09-12T14:33:33.743Z,42.60
2017-09-12T14:36:00.485Z,41.20
2017-09-12T14:38:27.126Z,41.00
2017-09-12T14:40:54.215Z,38.40
2017-09-12T14:43:20.494Z,38.40
2017-09-12T14:45:46.764Z,36.80
2017-09-12T14:48:13.095Z,37.60
2017-09-12T14:50:39.363Z,37.20
2017-09-12T14:53:05.708Z,36.80
2017-09-12T14:55:32.005Z,37.20
2017-09-12T14:57:58.308Z,37.40
2017-09-12T15:00:24.573Z,36.50
2017-09-12T15:02:50.880Z,35.00
2017-09-12T15:05:17.176Z,35.20
2017-09-12T15:07:43.865Z,33.30
2017-09-12T15:10:10.180Z,33.30
2017-09-12T15:12:37.228Z,32.20
2017-09-12T15:15:03.528Z,33.60
2017-09-12T15:17:29.825Z,36.00
2017-09-12T15:19:56.144Z,38.00
2017-09-12T15:22:22.417Z,39.80
2017-09-12T15:24:49.510Z,39.20
2017-09-12T15:27:15.805Z,39.20
2017-09-12T15:29:42.074Z,37.10
2017-09-12T15:32:08.396Z,35.00
2017-09-12T15:34:34.691Z,32.90
2017-09-12T15:37:01.037Z,30.40
2017-09-12T15:39:27.349Z,29.20
2017-09-12T15:41:53.663Z,28.70
2017-09-12T15:44:20.334Z,26.60
2017-09-12T15:46:46.605Z,26.60
2017-09-12T15:49:12.884Z,25.20
2017-09-12T15:51:39.285Z,24.40
2017-09-12T15:54:05.619Z,23.10
2017-09-12T15:56:31.910Z,22.40
2017-09-12T15:58:59.085Z,21.80
2017-09-12T16:01:25.352Z,21.20
2017-09-12T16:03:51.632Z,20.20
2017-09-12T16:06:17.970Z,19.90
2017-09-12T16:08:45.153Z,19.70
2017-09-12T16:11:11.704Z,19.40
2017-09-12T16:13:38.006Z,19.00
2017-09-12T16:16:04.763Z,18.40
2017-09-12T16:18:31.048Z,18.10
2017-09-12T16:20:57.336Z,18.00
2017-09-12T16:23:23.621Z,17.70
2017-09-12T16:25:49.911Z,17.40
2017-09-12T16:28:16.235Z,17.10
2017-09-12T16:30:42.532Z,17.10
2017-09-12T16:33:08.884Z,16.90
2017-09-12T16:35:35.203Z,16.90
2017-09-12T16:38:01.479Z,16.90
2017-09-12T16:40:27.748Z,16.90
2017-09-12T16:42:54.855Z,16.50
2017-09-12T16:45:21.153Z,16.40
2017-09-12T16:47:47.463Z,16.40
2017-09-12T16:50:14.124Z,16.20
2017-09-12T16:52:40.405Z,16.20
2017-09-12T16:55:06.699Z,16.10
2017-09-12T16:57:33.020Z,16.00
2017-09-12T16:59:59.302Z,15.90
2017-09-12T17:02:26.563Z,16.00
2017-09-12T17:04:53.205Z,15.90
2017-09-12T17:07:20.395Z,15.90
2017-09-12T17:09:46.699Z,15.80
2017-09-12T17:12:13.849Z,15.80
2017-09-12T17:14:40.156Z,15.80
2017-09-12T17:17:06.458Z,15.90
2017-09-12T17:19:33.024Z,16.00
2017-09-12T17:21:59.324Z,15.80
2017-09-12T17:24:25.608Z,15.80
2017-09-12T17:26:51.953Z,15.80
2017-09-12T17:29:18.283Z,15.40
2017-09-12T17:31:44.607Z,15.40
2017-09-12T17:34:11.237Z,15.40
2017-09-12T17:36:37.553Z,15.30
2017-09-12T17:39:03.880Z,15.10
2017-09-12T17:41:30.164Z,15.10
2017-09-12T17:43:56.451Z,15.00
2017-09-12T17:46:22.767Z,14.90
2017-09-12T17:48:49.723Z,14.70
2017-09-12T17:51:16.020Z,14.70
2017-09-12T17:53:42.408Z,14.50
2017-09-12T17:56:08.807Z,14.50
2017-09-12T17:58:35.143Z,14.50
2017-09-12T18:01:01.884Z,14.50
2017-09-12T18:03:30.101Z,14.40
2017-09-12T18:05:56.368Z,14.40
2017-09-12T18:08:22.668Z,14.50
2017-09-12T18:10:48.945Z,14.70
2017-09-12T18:13:15.416Z,14.70
2017-09-12T18:15:41.773Z,14.60
2017-09-12T18:18:08.166Z,14.80
2017-09-12T18:20:34.641Z,15.00
2017-09-12T18:23:00.975Z,14.80
2017-09-12T18:25:28.167Z,14.80
2017-09-12T18:27:54.602Z,14.70
2017-09-12T18:30:22.155Z,14.70
2017-09-12T18:32:48.488Z,14.70
2017-09-12T18:35:14.780Z,14.50
2017-09-12T18:37:42.064Z,14.40
2017-09-12T18:40:09.300Z,14.30
2017-09-12T18:42:35.669Z,14.10
2017-09-12T18:45:02.138Z,14.20
2017-09-12T18:47:28.595Z,14.20
2017-09-12T18:49:55.057Z,14.40
2017-09-12T18:52:21.712Z,14.50
2017-09-12T18:54:48.332Z,14.50
2017-09-12T18:57:14.757Z,14.40
2017-09-12T18:59:42.949Z,14.30
2017-09-12T19:02:10.353Z,14.30
2017-09-12T19:04:36.665Z,14.30
2017-09-12T19:07:03.017Z,14.40
2017-09-12T19:09:30.128Z,14.40
2017-09-12T19:11:56.441Z,14.40
2017-09-12T19:14:22.915Z,14.40
2017-09-12T19:16:49.260Z,14.50
2017-09-12T19:19:15.699Z,14.40
2017-09-12T19:21:43.053Z,14.30
2017-09-12T19:24:09.426Z,14.20
2017-09-12T19:26:35.731Z,14.00
2017-09-12T19:29:03.633Z,13.70
2017-09-12T19:31:30.252Z,13.70
2017-09-12T19:33:56.558Z,13.60
2017-09-12T19:36:23.353Z,13.70
2017-09-12T19:38:49.667Z,13.70
2017-09-12T19:41:16.055Z,13.60
2017-09-12T19:43:42.805Z,13.20
2017-09-12T19:46:10.092Z,13.20
2017-09-12T19:48:36.591Z,13.20
2017-09-12T19:51:02.963Z,13.20
2017-09-12T19:53:29.955Z,13.20
2017-09-12T19:55:56.448Z,13.20
2017-09-12T19:58:22.870Z,13.30
2017-09-12T20:00:49.194Z,13.30
2017-09-12T20:03:15.534Z,13.30
2017-09-12T20:05:41.897Z,13.20
2017-09-12T20:08:09.005Z,13.00
2017-09-12T20:10:36.233Z,13.00
2017-09-12T20:13:03.700Z,13.00
2017-09-12T20:15:30.357Z,13.00
2017-09-12T20:17:56.660Z,13.00
2017-09-12T20:20:22.949Z,12.90
2017-09-12T20:22:49.309Z,12.80
2017-09-12T20:25:15.688Z,12.60
2017-09-12T20:27:42.085Z,12.60
2017-09-12T20:30:08.888Z,12.60
2017-09-12T20:32:35.232Z,12.60
2017-09-12T20:35:01.589Z,12.60
2017-09-12T20:37:28.285Z,12.70
2017-09-12T20:39:55.228Z,12.70
2017-09-12T20:42:21.538Z,12.70
2017-09-12T20:44:47.853Z,12.60
2017-09-12T20:47:14.125Z,12.70
2017-09-12T20:49:40.421Z,12.80
2017-09-12T20:52:06.952Z,12.80
2017-09-12T20:54:33.255Z,12.90
2017-09-12T20:56:59.907Z,12.60
2017-09-12T20:59:26.569Z,12.60
2017-09-12T21:01:52.892Z,12.50
2017-09-12T21:04:19.201Z,12.30
2017-09-12T21:06:45.605Z,12.50
2017-09-12T21:09:12.907Z,12.40
2017-09-12T21:11:39.184Z,12.50
2017-09-12T21:14:05.498Z,12.30
2017-09-12T21:16:31.804Z,12.20
2017-09-12T21:18:58.363Z,12.20
2017-09-12T21:21:24.982Z,12.20
2017-09-12T21:23:52.272Z,12.40
2017-09-12T21:26:18.535Z,12.40
2017-09-12T21:28:44.852Z,12.40
2017-09-12T21:31:11.186Z,12.20
2017-09-12T21:33:37.834Z,12.20
2017-09-12T21:36:04.092Z,12.20
2017-09-12T21:38:30.388Z,12.30
2017-09-12T21:40:56.720Z,12.30
2017-09-12T21:43:23.337Z,12.30
2017-09-12T21:45:50.008Z,12.40
2017-09-12T21:48:16.303Z,12.40
2017-09-12T21:50:43.047Z,12.40
2017-09-12T21:53:09.664Z,12.40
2017-09-12T21:55:37.003Z,12.50
2017-09-12T21:58:03.309Z,12.30
2017-09-12T22:00:29.764Z,12.30
2017-09-12T22:02:56.088Z,12.20
2017-09-12T22:05:22.415Z,12.20
2017-09-12T22:07:48.707Z,12.20
2017-09-12T22:10:14.986Z,12.30
2017-09-12T22:12:41.262Z,12.40
2017-09-12T22:15:07.547Z,12.20
2017-09-12T22:17:34.836Z,12.30
2017-09-12T22:20:01.537Z,12.20
2017-09-12T22:22:27.810Z,12.20
2017-09-12T22:24:54.080Z,12.10
2017-09-12T22:27:20.365Z,11.90
2017-09-12T22:29:47.031Z,11.90
2017-09-12T22:32:13.307Z,11.90
2017-09-12T22:34:39.572Z,11.80
2017-09-12T22:37:06.419Z,11.90
2017-09-12T22:39:32.704Z,12.00
2017-09-12T22:41:58.999Z,12.20
2017-09-12T22:44:25.260Z,12.30
2017-09-12T22:46:51.515Z,12.40
2017-09-12T22:49:17.835Z,12.40
2017-09-12T22:51:44.095Z,12.40
2017-09-12T22:54:10.360Z,12.60
2017-09-12T22:56:36.641Z,12.50
2017-09-12T22:59:02.911Z,12.20
2017-09-12T23:01:29.197Z,12.30
2017-09-12T23:03:55.850Z,12.00
2017-09-12T23:06:22.116Z,12.10
2017-09-12T23:08:48.376Z,12.00
2017-09-12T23:11:14.672Z,11.90
2017-09-12T23:13:40.984Z,12.10
2017-09-12T23:16:07.254Z,12.10
2017-09-12T23:18:33.537Z,12.10
2017-09-12T23:20:59.815Z,12.10
2017-09-12T23:23:26.117Z,12.20
2017-09-12T23:25:52.378Z,12.10
2017-09-12T23:28:18.657Z,12.30
2017-09-12T23:30:44.912Z,12.40
2017-09-12T23:33:11.190Z,12.30
2017-09-12T23:35:37.446Z,12.40
2017-09-12T23:38:04.063Z,12.40
2017-09-12T23:40:30.317Z,12.40
2017-09-12T23:42:56.571Z,12.40
2017-09-12T23:45:22.854Z,12.40
2017-09-12T23:47:49.085Z,12.30
2017-09-12T23:50:15.357Z,12.20
2017-09-12T23:52:41.664Z,12.00
2017-09-12T23:55:07.959Z,11.90
2017-09-12T23:57:34.230Z,12.00
